Terminal Aerodrome Forecast
Issued by NWS

Home | Current Version | Previous Version | Text Only | Print | Product List | Glossary On
Versions: 1 2 3 4 5 6 7 8 9 10 11 12
751
FTUS42 KFFC 302336
TAFPDK
TAF
KPDK 302336Z 3100/3124 34007KT P6SM FEW150
      TEMPO 3100/3102 33012G17KT SCT035
     FM310300 34006KT P6SM FEW150
     FM310800 03005KT P6SM FEW250
     FM311400 09006KT P6SM FEW050
     FM311800 32006KT P6SM SCT060=

USA.gov is the U.S. government's official web portal to all federal, state and local government web resources and services.